Time;durP1;ratioP1;P1;durP2;ratioP2;P2;SDS_P1;SDS_P2;PMS_P1;PMS_P2;Temp;Humidity;BMP_temperature;BMP_pressure;BME280_temperature;BME280_humidity;BME280_pressure;Samples;Min_cycle;Max_cycle;Signal;HPM_P1;HPM_P2
2023/05/02 00:00:53;;;;;;;2.67;1.20;;;11.70;99.90;;;;;;5080622;28;20043;-86
2023/05/02 00:03:21;;;;;;;0.70;0.68;;;11.70;99.90;;;;;;5080600;28;20403;-86
2023/05/02 00:05:47;;;;;;;0.17;0.17;;;11.60;99.90;;;;;;5064672;28;20048;-86
2023/05/02 00:08:21;;;;;;;1.02;0.95;;;11.60;99.90;;;;;;5064214;28;20130;-86
2023/05/02 00:10:46;;;;;;;1.25;1.00;;;11.60;99.90;;;;;;5077062;28;20052;-87
2023/05/02 00:13:12;;;;;;;0.40;0.08;;;11.60;99.90;;;;;;5078005;28;20048;-86
2023/05/02 00:15:41;;;;;;;0.90;0.30;;;11.60;99.90;;;;;;5061851;28;20052;-86
2023/05/02 00:18:07;;;;;;;0.40;0.40;;;11.60;99.90;;;;;;5077253;28;20040;-86
2023/05/02 00:20:35;;;;;;;0.40;0.15;;;11.60;99.90;;;;;;5094848;28;20040;-85
2023/05/02 00:23:01;;;;;;;0.10;0.10;;;11.60;99.90;;;;;;5078056;28;20043;-86
2023/05/02 00:25:28;;;;;;;0.80;0.75;;;11.60;99.90;;;;;;5045352;28;20407;-87
2023/05/02 00:27:54;;;;;;;1.98;1.15;;;11.60;99.90;;;;;;5080377;28;20400;-86
2023/05/02 00:30:20;;;;;;;0.10;0.10;;;11.60;99.90;;;;;;5079065;28;20048;-86
2023/05/02 00:32:48;;;;;;;0.03;0.03;;;11.60;99.90;;;;;;5043747;28;20048;-86
2023/05/02 00:35:14;;;;;;;0.98;0.45;;;11.60;99.90;;;;;;5094169;28;20412;-86
2023/05/02 00:37:40;;;;;;;0.28;0.17;;;11.60;99.90;;;;;;5077067;28;20055;-86
2023/05/02 00:40:06;;;;;;;0.08;0.08;;;11.60;99.90;;;;;;5077113;28;20043;-86
2023/05/02 00:42:34;;;;;;;0.30;0.20;;;11.60;99.90;;;;;;5076879;28;20059;-86
2023/05/02 00:45:02;;;;;;;0.88;0.88;;;11.60;99.90;;;;;;5076736;28;20052;-86
2023/05/02 00:47:28;;;;;;;0.75;0.47;;;11.60;99.90;;;;;;5093490;28;20105;-85
2023/05/02 00:49:54;;;;;;;0.32;0.20;;;11.50;99.90;;;;;;5059929;28;20052;-86
2023/05/02 00:52:20;;;;;;;0.75;0.13;;;11.50;99.90;;;;;;5059545;28;20048;-85
2023/05/02 00:54:46;;;;;;;1.15;0.85;;;11.40;99.90;;;;;;5092736;28;20048;-86
2023/05/02 00:57:12;;;;;;;1.08;0.20;;;11.40;99.90;;;;;;5077252;28;20101;-86
2023/05/02 00:59:38;;;;;;;0.00;0.00;;;11.40;99.90;;;;;;5060131;28;20048;-86
2023/05/02 01:02:10;;;;;;;0.73;0.22;;;11.30;99.90;;;;;;5059827;28;20476;-86
2023/05/02 01:04:52;;;;;;;0.00;0.00;;;11.20;99.90;;;;;;5075921;28;20055;-85
2023/05/02 01:07:48;;;;;;;0.20;0.10;;;11.20;99.90;;;;;;5093442;28;20040;-86
2023/05/02 01:10:35;;;;;;;0.10;0.10;;;11.10;99.90;;;;;;5075691;28;20055;-85
2023/05/02 01:13:17;;;;;;;0.00;0.00;;;11.00;99.90;;;;;;5076392;28;20381;-86
2023/05/02 01:15:44;;;;;;;0.10;0.00;;;11.00;99.90;;;;;;5076238;28;20054;-85
2023/05/02 01:18:12;;;;;;;0.80;0.15;;;10.90;99.90;;;;;;5076083;28;20047;-85
2023/05/02 01:20:42;;;;;;;0.10;0.10;;;10.90;99.90;;;;;;5075959;28;20067;-86
2023/05/02 01:23:49;;;;;;;0.00;0.00;;;10.90;99.90;;;;;;5076347;28;20116;-85
2023/05/02 01:26:39;;;;;;;0.05;0.00;;;10.90;99.90;;;;;;5036637;28;20056;-85
2023/05/02 01:29:12;;;;;;;0.00;0.00;;;10.80;99.90;;;;;;5075864;28;20048;-85
2023/05/02 01:31:50;;;;;;;0.00;0.00;;;10.80;99.90;;;;;;5093448;28;20112;-85
2023/05/02 01:34:20;;;;;;;0.00;0.00;;;10.80;99.90;;;;;;5076329;28;20059;-85
2023/05/02 01:36:49;;;;;;;0.00;0.00;;;10.70;99.90;;;;;;5075818;28;20059;-85
2023/05/02 01:39:25;;;;;;;3.95;0.88;;;10.70;99.90;;;;;;5092506;28;20044;-86
2023/05/02 01:41:54;;;;;;;0.45;0.38;;;10.70;99.90;;;;;;5092661;28;20108;-85
2023/05/02 01:44:22;;;;;;;0.00;0.00;;;10.70;99.90;;;;;;5093256;28;20186;-85
2023/05/02 01:46:50;;;;;;;0.00;0.00;;;10.60;99.90;;;;;;5079766;28;20193;-85
2023/05/02 01:49:18;;;;;;;0.00;0.00;;;10.60;99.90;;;;;;5079268;28;20044;-85
2023/05/02 01:51:49;;;;;;;0.00;0.00;;;10.60;99.90;;;;;;5096357;28;20047;-86
2023/05/02 01:54:17;;;;;;;0.65;0.30;;;10.60;99.90;;;;;;5079618;28;20144;-85
2023/05/02 01:56:44;;;;;;;0.00;0.00;;;10.60;99.90;;;;;;5096072;28;20059;-85
2023/05/02 01:59:22;;;;;;;0.00;0.00;;;10.60;99.90;;;;;;5079634;28;20048;-85
2023/05/02 02:01:50;;;;;;;0.00;0.00;;;10.60;99.90;;;;;;5096399;28;20080;-86
2023/05/02 02:04:19;;;;;;;1.20;0.38;;;10.50;99.90;;;;;;5063002;28;20484;-85
2023/05/02 02:06:56;;;;;;;0.00;0.00;;;10.50;99.90;;;;;;5062770;28;20139;-85
2023/05/02 02:09:25;;;;;;;0.47;0.43;;;10.50;99.90;;;;;;5098916;28;20134;-85
2023/05/02 02:11:56;;;;;;;1.23;0.40;;;10.40;99.90;;;;;;5099942;28;20048;-86
2023/05/02 02:14:33;;;;;;;0.00;0.00;;;10.50;99.90;;;;;;5082532;28;20407;-85
2023/05/02 02:17:04;;;;;;;0.13;0.13;;;10.50;99.90;;;;;;5082411;28;20066;-86
2023/05/02 02:19:32;;;;;;;0.00;0.00;;;10.50;99.90;;;;;;5100453;28;20056;-85
2023/05/02 02:22:01;;;;;;;0.00;0.00;;;10.40;99.90;;;;;;5082964;28;20043;-85
2023/05/02 02:24:29;;;;;;;0.00;0.00;;;10.40;99.90;;;;;;5050091;28;20348;-86
2023/05/02 02:26:55;;;;;;;0.00;0.00;;;10.40;99.90;;;;;;5083089;28;20044;-85
2023/05/02 02:29:21;;;;;;;0.00;0.00;;;10.20;99.90;;;;;;5082274;28;20044;-85
2023/05/02 02:31:46;;;;;;;0.30;0.20;;;10.20;99.90;;;;;;5082789;28;20079;-86
2023/05/02 02:34:12;;;;;;;0.00;0.00;;;10.20;99.90;;;;;;5082780;28;20074;-85
2023/05/02 02:36:54;;;;;;;0.00;0.00;;;10.10;99.90;;;;;;5082850;28;20062;-85
2023/05/02 02:39:52;;;;;;;0.00;0.00;;;10.20;99.90;;;;;;5082716;28;20387;-85
2023/05/02 02:42:38;;;;;;;0.00;0.00;;;10.20;99.90;;;;;;5082635;28;20047;-85
2023/05/02 02:45:14;;;;;;;0.00;0.00;;;10.20;99.90;;;;;;5082442;28;20505;-85
2023/05/02 02:47:51;;;;;;;0.00;0.00;;;10.20;99.90;;;;;;5082665;28;20108;-86
2023/05/02 02:50:31;;;;;;;0.00;0.00;;;10.10;99.90;;;;;;5098599;28;20480;-86
2023/05/02 02:53:12;;;;;;;0.00;0.00;;;10.20;99.90;;;;;;5098943;28;20048;-86
2023/05/02 02:55:43;;;;;;;0.00;0.00;;;10.20;99.90;;;;;;5081770;28;20113;-85
2023/05/02 02:58:29;;;;;;;0.00;0.00;;;10.10;99.90;;;;;;5098051;28;20100;-85
2023/05/02 03:01:01;;;;;;;0.00;0.00;;;10.10;99.90;;;;;;5098558;28;20044;-85
2023/05/02 03:03:28;;;;;;;0.00;0.00;;;10.10;99.90;;;;;;5082167;28;20047;-84
2023/05/02 03:06:00;;;;;;;0.10;0.00;;;10.10;99.90;;;;;;5065645;28;20051;-85
2023/05/02 03:08:25;;;;;;;0.00;0.00;;;10.10;99.90;;;;;;5082378;28;20044;-86
2023/05/02 03:10:51;;;;;;;0.00;0.00;;;10.10;99.90;;;;;;5081012;28;20058;-85
2023/05/02 03:13:17;;;;;;;0.00;0.00;;;10.00;99.90;;;;;;5082122;28;20043;-85
2023/05/02 03:15:57;;;;;;;0.38;0.38;;;10.10;99.90;;;;;;5082387;28;20380;-85
2023/05/02 03:18:23;;;;;;;0.00;0.00;;;10.00;99.90;;;;;;5098735;28;20087;-85
2023/05/02 03:20:49;;;;;;;0.00;0.00;;;10.00;99.90;;;;;;5081735;28;20083;-85
2023/05/02 03:23:15;;;;;;;2.38;0.52;;;9.80;99.90;;;;;;5065088;28;20048;-85
2023/05/02 03:25:41;;;;;;;0.00;0.00;;;9.80;99.90;;;;;;5097859;28;20509;-85
2023/05/02 03:28:06;;;;;;;0.00;0.00;;;9.60;99.90;;;;;;5081468;28;20047;-85
2023/05/02 03:30:32;;;;;;;0.00;0.00;;;9.50;99.90;;;;;;5065153;28;20093;-85
2023/05/02 03:32:59;;;;;;;1.27;0.85;;;9.40;99.90;;;;;;5098577;28;20051;-85
2023/05/02 03:35:25;;;;;;;0.25;0.13;;;9.30;99.90;;;;;;5081853;28;20039;-85
2023/05/02 03:37:53;;;;;;;0.00;0.00;;;9.20;99.90;;;;;;5064975;28;20050;-85
2023/05/02 03:40:20;;;;;;;1.38;0.70;;;9.20;99.90;;;;;;5097938;28;20088;-86
2023/05/02 03:42:46;;;;;;;0.00;0.00;;;9.20;99.90;;;;;;5081804;28;20055;-86
2023/05/02 03:45:12;;;;;;;3.42;0.77;;;9.20;99.90;;;;;;5064687;28;20051;-85
2023/05/02 03:47:38;;;;;;;0.00;0.00;;;9.20;99.90;;;;;;5064101;28;20040;-86
2023/05/02 03:50:04;;;;;;;0.45;0.43;;;9.00;99.90;;;;;;5081403;28;20040;-85
2023/05/02 03:52:30;;;;;;;0.10;0.10;;;9.10;99.90;;;;;;5064723;28;20064;-86
2023/05/02 03:54:56;;;;;;;0.08;0.00;;;9.00;99.90;;;;;;5080072;28;20047;-85
2023/05/02 03:57:22;;;;;;;0.77;0.45;;;9.00;99.90;;;;;;5081307;28;20391;-85
2023/05/02 03:59:50;;;;;;;2.28;0.47;;;8.90;99.90;;;;;;5097998;28;20044;-85
2023/05/02 04:02:17;;;;;;;0.20;0.20;;;8.90;99.90;;;;;;5097898;28;20436;-86
2023/05/02 04:04:43;;;;;;;1.67;0.22;;;8.90;99.90;;;;;;5064555;28;20046;-86
2023/05/02 04:07:15;;;;;;;0.00;0.00;;;8.80;99.90;;;;;;5081197;28;20040;-85
2023/05/02 04:09:41;;;;;;;0.00;0.00;;;8.80;99.90;;;;;;5079555;28;20063;-85
2023/05/02 04:12:07;;;;;;;0.43;0.28;;;8.80;99.90;;;;;;5080765;28;20096;-85
2023/05/02 04:14:33;;;;;;;1.05;0.85;;;8.70;99.90;;;;;;5080659;28;20092;-86
2023/05/02 04:16:58;;;;;;;0.00;0.00;;;8.70;99.90;;;;;;5064113;28;20054;-85
2023/05/02 04:19:34;;;;;;;0.25;0.25;;;8.60;99.90;;;;;;5097204;28;20083;-85
2023/05/02 04:22:02;;;;;;;0.10;0.10;;;8.60;99.90;;;;;;5080393;28;20051;-86
2023/05/02 04:24:28;;;;;;;0.73;0.20;;;8.60;99.90;;;;;;5080920;28;20044;-85
2023/05/02 04:26:54;;;;;;;0.55;0.55;;;8.50;99.90;;;;;;5096781;28;20059;-85
2023/05/02 04:29:20;;;;;;;0.20;0.10;;;8.50;99.90;;;;;;5063299;28;20488;-85
2023/05/02 04:31:49;;;;;;;0.10;0.10;;;8.50;99.90;;;;;;5097142;28;20112;-85
2023/05/02 04:34:15;;;;;;;0.65;0.20;;;8.50;99.90;;;;;;5063757;28;20055;-86
2023/05/02 04:36:41;;;;;;;3.10;0.82;;;8.50;99.90;;;;;;5047214;28;20036;-85
2023/05/02 04:39:07;;;;;;;0.90;0.10;;;8.50;99.90;;;;;;5063566;28;20122;-85
2023/05/02 04:41:33;;;;;;;0.10;0.10;;;8.50;99.90;;;;;;5079837;28;20391;-85
2023/05/02 04:43:59;;;;;;;0.22;0.22;;;8.40;99.90;;;;;;5063242;28;20048;-84
2023/05/02 04:46:27;;;;;;;4.55;0.75;;;8.40;99.90;;;;;;5063100;28;20116;-85
2023/05/02 04:48:52;;;;;;;0.55;0.45;;;8.40;99.90;;;;;;5079679;28;20465;-85
2023/05/02 04:51:18;;;;;;;0.38;0.38;;;8.30;99.90;;;;;;5062754;28;20131;-85
2023/05/02 04:53:45;;;;;;;0.20;0.20;;;8.40;99.90;;;;;;5063166;28;20043;-85
2023/05/02 04:56:13;;;;;;;0.00;0.00;;;8.30;99.90;;;;;;5079371;28;20055;-84
2023/05/02 04:58:41;;;;;;;0.17;0.17;;;8.40;99.90;;;;;;5079525;28;20067;-85
2023/05/02 05:01:07;;;;;;;0.00;0.00;;;8.40;99.90;;;;;;5096014;28;20488;-85
2023/05/02 05:03:33;;;;;;;0.52;0.52;;;8.30;99.90;;;;;;5079716;28;20130;-85
2023/05/02 05:05:59;;;;;;;1.08;0.85;;;8.30;99.90;;;;;;5079247;28;20599;-85
2023/05/02 05:08:25;;;;;;;0.00;0.00;;;8.30;99.90;;;;;;5079206;28;20036;-85
2023/05/02 05:10:51;;;;;;;0.17;0.17;;;8.30;99.90;;;;;;5075700;28;20117;-85
2023/05/02 05:13:19;;;;;;;0.00;0.00;;;8.30;99.90;;;;;;5093356;28;20055;-85
2023/05/02 05:15:47;;;;;;;1.55;0.63;;;8.40;99.90;;;;;;5076369;28;20051;-85
2023/05/02 05:18:14;;;;;;;0.05;0.03;;;8.30;99.90;;;;;;5059614;28;20385;-85
2023/05/02 05:20:39;;;;;;;8.57;0.57;;;8.40;99.90;;;;;;5059941;28;20185;-86
2023/05/02 05:23:08;;;;;;;0.00;0.00;;;8.40;99.90;;;;;;5077854;28;20101;-85
2023/05/02 05:25:33;;;;;;;0.20;0.20;;;8.40;99.90;;;;;;5077047;28;20396;-86
2023/05/02 05:27:59;;;;;;;0.00;0.00;;;8.40;99.90;;;;;;5076537;28;20050;-84
2023/05/02 05:30:25;;;;;;;0.00;0.00;;;8.50;99.90;;;;;;5093626;28;20048;-85
2023/05/02 05:32:52;;;;;;;0.00;0.00;;;8.50;99.90;;;;;;5093617;28;20052;-84
2023/05/02 05:35:17;;;;;;;0.75;0.10;;;8.50;99.90;;;;;;5059104;28;20040;-84
2023/05/02 05:37:43;;;;;;;0.00;0.00;;;8.60;99.90;;;;;;5076176;28;20047;-84
2023/05/02 05:40:12;;;;;;;0.00;0.00;;;8.60;99.90;;;;;;5058938;28;20040;-84
2023/05/02 05:42:38;;;;;;;0.00;0.00;;;8.50;99.90;;;;;;5075891;28;20134;-84
2023/05/02 05:45:06;;;;;;;0.00;0.00;;;8.60;99.90;;;;;;5092484;28;20094;-84
2023/05/02 05:47:32;;;;;;;0.03;0.00;;;8.60;99.90;;;;;;5076075;28;20127;-84
2023/05/02 05:49:58;;;;;;;0.38;0.10;;;8.60;99.90;;;;;;5092502;28;20135;-84
2023/05/02 05:52:23;;;;;;;0.00;0.00;;;8.60;99.90;;;;;;5092637;28;20043;-84
2023/05/02 05:54:54;;;;;;;0.00;0.00;;;8.60;99.90;;;;;;5058810;28;20048;-85
2023/05/02 05:57:20;;;;;;;0.28;0.28;;;8.60;99.90;;;;;;5076083;28;20044;-84
2023/05/02 05:59:46;;;;;;;0.00;0.00;;;8.60;99.90;;;;;;5058735;28;20139;-84
2023/05/02 06:02:11;;;;;;;0.00;0.00;;;8.60;99.90;;;;;;5075668;28;20036;-84
2023/05/02 06:04:37;;;;;;;0.00;0.00;;;8.70;99.90;;;;;;5075590;28;20104;-84
2023/05/02 06:07:05;;;;;;;0.00;0.00;;;8.70;99.90;;;;;;5075418;28;20130;-85
2023/05/02 06:09:31;;;;;;;0.03;0.03;;;8.80;99.90;;;;;;5077071;28;20040;-84
2023/05/02 06:11:57;;;;;;;0.00;0.00;;;8.90;99.90;;;;;;5078734;28;20376;-84
2023/05/02 06:14:25;;;;;;;0.00;0.00;;;8.80;99.90;;;;;;5062299;28;20040;-85
2023/05/02 06:16:51;;;;;;;0.00;0.00;;;9.00;99.90;;;;;;5095773;28;20086;-85
2023/05/02 06:19:17;;;;;;;0.00;0.00;;;9.20;99.90;;;;;;5095907;28;20097;-84
2023/05/02 06:21:43;;;;;;;0.50;0.30;;;9.20;99.90;;;;;;5062475;28;20039;-85
2023/05/02 06:24:11;;;;;;;0.00;0.00;;;9.40;99.90;;;;;;5078878;28;20407;-85
2023/05/02 06:26:37;;;;;;;4.28;0.85;;;9.50;99.90;;;;;;5046230;28;20044;-85
2023/05/02 06:29:03;;;;;;;0.00;0.00;;;9.60;99.90;;;;;;5078281;28;20050;-83
2023/05/02 06:31:29;;;;;;;0.00;0.00;;;9.60;99.90;;;;;;5079164;28;20057;-83
2023/05/02 06:33:54;;;;;;;0.00;0.00;;;9.60;99.90;;;;;;5082247;28;20102;-83
2023/05/02 06:36:20;;;;;;;0.30;0.15;;;9.70;99.90;;;;;;5065871;28;20134;-82
2023/05/02 06:38:47;;;;;;;0.00;0.00;;;9.60;99.90;;;;;;5065691;28;20399;-85
2023/05/02 06:41:13;;;;;;;0.00;0.00;;;9.50;99.90;;;;;;5065084;28;20506;-82
2023/05/02 06:43:40;;;;;;;0.17;0.00;;;9.50;99.90;;;;;;5098686;28;20062;-82
2023/05/02 06:46:07;;;;;;;0.00;0.00;;;9.40;99.90;;;;;;5081717;28;20050;-85
2023/05/02 06:48:36;;;;;;;0.00;0.00;;;9.30;99.90;;;;;;5082113;28;20043;-85
2023/05/02 06:51:03;;;;;;;0.00;0.00;;;9.30;99.90;;;;;;5098752;28;20078;-82
2023/05/02 06:53:29;;;;;;;0.00;0.00;;;9.30;99.90;;;;;;5081741;28;20087;-82
2023/05/02 06:55:55;;;;;;;0.00;0.00;;;9.40;99.90;;;;;;5065646;28;20055;-82
2023/05/02 06:58:23;;;;;;;0.00;0.00;;;9.40;99.90;;;;;;5082595;28;20047;-87
2023/05/02 07:00:51;;;;;;;0.00;0.00;;;9.40;99.90;;;;;;5065798;28;20054;-86
2023/05/02 07:03:17;;;;;;;0.00;0.00;;;9.40;99.90;;;;;;5065725;28;20390;-84
2023/05/02 07:05:46;;;;;;;2.30;1.08;;;9.50;99.90;;;;;;5082644;28;20126;-83
2023/05/02 07:08:11;;;;;;;0.77;0.00;;;9.50;99.90;;;;;;5081844;28;20035;-84
2023/05/02 07:10:37;;;;;;;1.08;0.25;;;9.60;99.90;;;;;;5081759;28;20384;-84
2023/05/02 07:13:03;;;;;;;0.10;0.10;;;9.50;99.90;;;;;;5065371;28;20062;-84
2023/05/02 07:15:29;;;;;;;0.20;0.10;;;9.60;99.90;;;;;;5082434;28;20364;-85
2023/05/02 07:17:55;;;;;;;0.00;0.00;;;9.50;99.90;;;;;;5065655;28;20110;-85
2023/05/02 07:20:20;;;;;;;0.80;0.25;;;9.50;99.90;;;;;;5065822;28;20055;-87
2023/05/02 07:22:49;;;;;;;0.47;0.40;;;9.40;99.90;;;;;;5098920;28;20051;-87
2023/05/02 07:25:26;;;;;;;0.00;0.00;;;9.40;99.90;;;;;;5098949;28;20039;-90
2023/05/02 07:27:51;;;;;;;0.00;0.00;;;9.40;99.90;;;;;;5082511;28;20131;-82
2023/05/02 07:30:17;;;;;;;0.00;0.00;;;9.40;99.90;;;;;;5081424;28;20139;-83
2023/05/02 07:32:44;;;;;;;4.00;0.70;;;9.40;99.90;;;;;;5081330;28;20544;-83
2023/05/02 07:35:10;;;;;;;0.00;0.00;;;9.30;99.90;;;;;;5081843;28;20044;-83
2023/05/02 07:37:35;;;;;;;0.00;0.00;;;9.30;99.90;;;;;;5048488;28;20551;-84
2023/05/02 07:40:04;;;;;;;0.00;0.00;;;9.30;99.90;;;;;;5081495;28;20146;-84
2023/05/02 07:42:31;;;;;;;0.00;0.00;;;9.30;99.90;;;;;;5081976;28;20058;-83
2023/05/02 07:44:58;;;;;;;0.30;0.30;;;9.30;99.90;;;;;;5081955;28;20540;-84
2023/05/02 07:47:25;;;;;;;0.10;0.10;;;9.40;99.90;;;;;;5081735;28;20054;-83
2023/05/02 07:49:51;;;;;;;0.00;0.00;;;9.30;99.90;;;;;;5064300;28;20047;-84
2023/05/02 07:52:28;;;;;;;0.00;0.00;;;9.40;99.90;;;;;;5081891;28;20047;-89
2023/05/02 07:54:56;;;;;;;0.00;0.00;;;9.50;99.90;;;;;;5065268;28;20083;-84
2023/05/02 07:57:22;;;;;;;0.00;0.00;;;9.50;99.90;;;;;;5081317;28;20075;-85
2023/05/02 07:59:50;;;;;;;0.00;0.00;;;9.50;99.90;;;;;;5081519;28;20480;-85
2023/05/02 08:02:18;;;;;;;0.00;0.00;;;9.60;99.90;;;;;;5098151;28;20529;-85
2023/05/02 08:04:46;;;;;;;0.00;0.00;;;9.70;99.90;;;;;;5081401;28;20058;-85
2023/05/02 08:07:12;;;;;;;0.17;0.17;;;9.80;99.90;;;;;;5064891;28;20380;-85
2023/05/02 08:09:38;;;;;;;0.00;0.00;;;9.80;99.90;;;;;;5064321;28;20066;-86
2023/05/02 08:12:04;;;;;;;0.03;0.03;;;9.90;99.90;;;;;;5097518;28;20047;-86
2023/05/02 08:14:32;;;;;;;0.00;0.00;;;9.90;99.90;;;;;;5080289;28;20518;-85
2023/05/02 08:17:07;;;;;;;0.10;0.00;;;9.90;99.90;;;;;;5080292;28;20043;-86
2023/05/02 08:19:33;;;;;;;0.13;0.05;;;10.00;99.90;;;;;;5097120;28;20083;-85
2023/05/02 08:22:24;;;;;;;0.00;0.00;;;9.90;99.90;;;;;;5080359;28;20085;-90
2023/05/02 08:24:50;;;;;;;0.57;0.20;;;9.90;99.90;;;;;;5063023;28;20495;-85
2023/05/02 08:27:16;;;;;;;0.45;0.45;;;9.90;99.90;;;;;;5080164;28;20109;-84
2023/05/02 08:29:42;;;;;;;0.85;0.43;;;9.90;99.90;;;;;;5063137;28;20050;-84
2023/05/02 08:32:07;;;;;;;0.10;0.10;;;9.80;99.90;;;;;;5063837;28;20071;-84
2023/05/02 08:34:33;;;;;;;0.45;0.45;;;9.80;99.90;;;;;;5047403;28;20537;-84
2023/05/02 08:36:59;;;;;;;0.20;0.15;;;9.80;99.90;;;;;;5080726;28;20047;-84
2023/05/02 08:39:25;;;;;;;0.10;0.10;;;9.90;99.90;;;;;;5080909;28;20047;-84
2023/05/02 08:41:53;;;;;;;0.00;0.00;;;9.80;99.90;;;;;;5097199;28;20133;-85
2023/05/02 08:44:19;;;;;;;0.28;0.28;;;9.90;99.90;;;;;;5063455;28;20050;-84
2023/05/02 08:46:49;;;;;;;0.00;0.00;;;9.90;99.90;;;;;;5080631;28;20166;-85
2023/05/02 08:49:16;;;;;;;0.10;0.10;;;10.00;99.50;;;;;;5096764;28;20479;-85
2023/05/02 08:51:45;;;;;;;0.03;0.03;;;10.20;99.90;;;;;;5080189;28;20395;-84
2023/05/02 08:54:15;;;;;;;2.17;1.15;;;10.30;99.90;;;;;;5096872;28;20054;-84
2023/05/02 08:56:41;;;;;;;0.00;0.00;;;10.40;99.90;;;;;;5097066;28;20051;-85
2023/05/02 08:59:07;;;;;;;0.10;0.00;;;10.50;99.50;;;;;;5080124;28;20047;-84
2023/05/02 09:01:35;;;;;;;0.00;0.00;;;10.60;98.70;;;;;;5063244;28;20094;-84
2023/05/02 09:04:04;;;;;;;4.55;0.75;;;10.70;99.20;;;;;;5080243;28;20039;-84
2023/05/02 09:06:29;;;;;;;0.25;0.25;;;10.80;98.80;;;;;;5096942;28;20047;-84
2023/05/02 09:09:01;;;;;;;0.10;0.10;;;11.00;98.30;;;;;;5096625;28;20043;-85
2023/05/02 09:11:30;;;;;;;0.40;0.10;;;11.20;97.90;;;;;;5096429;28;20111;-84
2023/05/02 09:13:57;;;;;;;0.32;0.08;;;11.40;97.00;;;;;;5080230;28;20055;-85
2023/05/02 09:16:25;;;;;;;0.00;0.00;;;11.50;96.70;;;;;;5080668;28;20050;-84
2023/05/02 09:18:56;;;;;;;0.00;0.00;;;11.50;94.80;;;;;;5097114;28;20531;-84
2023/05/02 09:21:36;;;;;;;0.00;0.00;;;11.50;94.40;;;;;;5079851;28;20052;-84
2023/05/02 09:24:13;;;;;;;0.00;0.00;;;11.50;94.70;;;;;;5097004;28;20043;-84
2023/05/02 09:26:39;;;;;;;0.00;0.00;;;11.70;95.30;;;;;;5096434;28;20056;-85
2023/05/02 09:29:08;;;;;;;0.20;0.20;;;11.90;95.10;;;;;;5080094;28;20104;-85
2023/05/02 09:31:37;;;;;;;0.03;0.03;;;12.00;94.50;;;;;;5078851;28;20043;-85
2023/05/02 09:34:15;;;;;;;0.03;0.03;;;12.00;94.00;;;;;;5063213;28;20088;-85
2023/05/02 09:36:46;;;;;;;1.55;0.40;;;12.00;94.40;;;;;;5096177;28;20119;-85
2023/05/02 09:39:16;;;;;;;0.20;0.20;;;12.10;95.00;;;;;;5095823;28;20442;-85
2023/05/02 09:41:46;;;;;;;0.38;0.38;;;12.30;93.40;;;;;;5079344;28;20100;-85
2023/05/02 09:44:17;;;;;;;0.00;0.00;;;12.40;93.50;;;;;;5079125;28;20114;-85
2023/05/02 09:46:47;;;;;;;0.85;0.00;;;12.40;92.60;;;;;;5078854;28;20050;-85
2023/05/02 09:49:19;;;;;;;3.10;0.63;;;12.30;91.50;;;;;;5079443;28;20127;-85
2023/05/02 09:51:46;;;;;;;0.00;0.00;;;12.20;92.10;;;;;;5079206;28;20089;-85
2023/05/02 09:54:32;;;;;;;0.00;0.00;;;12.20;91.30;;;;;;5078747;28;20035;-85
2023/05/02 09:57:00;;;;;;;0.00;0.00;;;12.10;91.70;;;;;;5078142;28;20055;-84
2023/05/02 09:59:26;;;;;;;0.00;0.00;;;11.90;92.40;;;;;;5095968;28;20058;-84
2023/05/02 10:02:03;;;;;;;0.00;0.00;;;11.90;93.30;;;;;;5078520;28;20040;-85
2023/05/02 10:04:31;;;;;;;0.28;0.10;;;11.90;93.60;;;;;;5078918;28;20141;-84
2023/05/02 10:06:57;;;;;;;0.00;0.00;;;11.90;92.90;;;;;;5080536;28;20040;-84
2023/05/02 10:09:25;;;;;;;0.00;0.00;;;11.80;93.00;;;;;;5082537;28;20044;-85
2023/05/02 10:11:53;;;;;;;0.00;0.00;;;11.80;92.50;;;;;;5082299;28;20445;-85
2023/05/02 10:14:27;;;;;;;0.00;0.00;;;11.70;92.60;;;;;;5099999;28;20040;-84
2023/05/02 10:17:13;;;;;;;0.05;0.05;;;11.50;92.50;;;;;;5067605;28;20087;-84
2023/05/02 10:20:05;;;;;;;1.45;0.57;;;11.30;93.40;;;;;;5082629;28;20048;-84
2023/05/02 10:22:33;;;;;;;0.15;0.10;;;11.50;94.50;;;;;;5099314;28;20047;-84
2023/05/02 10:25:02;;;;;;;0.00;0.00;;;11.70;94.60;;;;;;5065669;28;20112;-84
2023/05/02 10:27:32;;;;;;;0.00;0.00;;;11.90;94.10;;;;;;5082535;28;20075;-84
2023/05/02 10:29:59;;;;;;;0.00;0.00;;;12.00;94.40;;;;;;5066132;28;20126;-84
2023/05/02 10:32:30;;;;;;;0.00;0.00;;;12.10;93.30;;;;;;5082590;28;20090;-84
2023/05/02 10:34:58;;;;;;;0.05;0.00;;;12.20;93.50;;;;;;5082170;28;20048;-84
2023/05/02 10:37:28;;;;;;;0.00;0.00;;;12.30;93.80;;;;;;5065842;28;20120;-84
2023/05/02 10:40:05;;;;;;;0.00;0.00;;;12.40;93.50;;;;;;5082254;28;20139;-84
2023/05/02 10:42:36;;;;;;;0.00;0.00;;;12.40;93.10;;;;;;5082143;28;20056;-84
2023/05/02 10:45:02;;;;;;;0.10;0.10;;;12.40;93.70;;;;;;5081681;28;20504;-84
2023/05/02 10:47:29;;;;;;;0.00;0.00;;;12.40;93.30;;;;;;5082225;28;20054;-84
2023/05/02 10:50:04;;;;;;;0.00;0.00;;;12.40;93.10;;;;;;5098556;28;20055;-84
2023/05/02 10:52:33;;;;;;;0.00;0.00;;;12.30;92.10;;;;;;5099055;28;20044;-85
2023/05/02 10:55:18;;;;;;;0.00;0.00;;;12.30;92.40;;;;;;5081820;28;20130;-84
2023/05/02 10:57:57;;;;;;;0.08;0.00;;;12.40;92.60;;;;;;5081862;28;20506;-84
2023/05/02 11:00:32;;;;;;;0.00;0.00;;;12.80;93.20;;;;;;5081646;28;20097;-84
2023/05/02 11:02:58;;;;;;;0.30;0.30;;;12.60;93.60;;;;;;5082476;28;20114;-85
2023/05/02 11:05:25;;;;;;;0.10;0.10;;;12.70;93.20;;;;;;5082060;28;20051;-84
2023/05/02 11:08:18;;;;;;;0.00;0.00;;;12.90;93.50;;;;;;5081562;28;20136;-84
2023/05/02 11:10:47;;;;;;;0.00;0.00;;;13.00;92.40;;;;;;5081396;28;20387;-84
2023/05/02 11:13:12;;;;;;;0.00;0.00;;;13.10;92.90;;;;;;5049716;28;20044;-84
2023/05/02 11:15:41;;;;;;;0.00;0.00;;;13.20;91.80;;;;;;5081405;28;20046;-85
2023/05/02 11:18:11;;;;;;;0.00;0.00;;;13.20;92.30;;;;;;5080821;28;20089;-84
2023/05/02 11:20:39;;;;;;;0.00;0.00;;;13.10;91.20;;;;;;5065141;28;20085;-85
2023/05/02 11:23:20;;;;;;;1.75;0.65;;;13.10;91.20;;;;;;5081733;28;20039;-84
2023/05/02 11:25:48;;;;;;;0.00;0.00;;;13.20;90.70;;;;;;5080883;28;20047;-84
2023/05/02 11:28:38;;;;;;;0.00;0.00;;;13.20;91.50;;;;;;5081064;28;20123;-84
2023/05/02 11:31:07;;;;;;;0.10;0.10;;;13.30;91.60;;;;;;5081728;28;20049;-85
2023/05/02 11:33:41;;;;;;;0.00;0.00;;;13.30;90.00;;;;;;5098608;28;20043;-85
2023/05/02 11:36:17;;;;;;;;;;;;;;;;;;;;;
2023/05/02 11:38:43;;;;;;;0.00;0.00;;;13.70;91.70;;;;;;5083554;28;20495;-84
2023/05/02 11:41:13;;;;;;;0.52;0.13;;;13.70;91.30;;;;;;5081107;28;20083;-86
2023/05/02 11:43:39;;;;;;;0.00;0.00;;;13.70;91.00;;;;;;5064443;28;20082;-86
2023/05/02 11:46:06;;;;;;;0.40;0.10;;;13.60;90.70;;;;;;5081152;28;20093;-85
2023/05/02 11:48:32;;;;;;;0.00;0.00;;;13.60;90.60;;;;;;5064618;28;20188;-85
2023/05/02 11:51:05;;;;;;;0.25;0.20;;;13.60;89.80;;;;;;5080703;28;20055;-85
2023/05/02 11:53:39;;;;;;;0.00;0.00;;;13.60;91.00;;;;;;5079581;28;20047;-86
2023/05/02 11:56:05;;;;;;;0.00;0.00;;;13.60;91.30;;;;;;5097257;28;20043;-85
2023/05/02 11:58:34;;;;;;;0.10;0.10;;;13.60;90.60;;;;;;5080733;28;20050;-85
2023/05/02 12:01:16;;;;;;;0.00;0.00;;;13.50;89.90;;;;;;5080579;28;20051;-85
2023/05/02 12:03:44;;;;;;;0.00;0.00;;;13.50;90.60;;;;;;5080306;28;20051;-85
2023/05/02 12:06:12;;;;;;;2.33;0.65;;;13.40;88.60;;;;;;5063933;28;20044;-85
2023/05/02 12:08:42;;;;;;;0.00;0.00;;;13.60;90.00;;;;;;5080206;28;20039;-85
2023/05/02 12:11:11;;;;;;;0.00;0.00;;;13.60;88.40;;;;;;5097081;28;20197;-86
2023/05/02 12:13:45;;;;;;;0.00;0.00;;;13.60;89.80;;;;;;5080172;28;20108;-85
2023/05/02 12:16:26;;;;;;;3.10;0.57;;;13.60;90.40;;;;;;5080709;28;20043;-85
2023/05/02 12:18:52;;;;;;;0.00;0.00;;;13.60;90.40;;;;;;5078777;28;20080;-85
2023/05/02 12:21:18;;;;;;;0.00;0.00;;;13.60;88.30;;;;;;5063662;28;20126;-85
2023/05/02 12:23:44;;;;;;;0.20;0.20;;;13.60;88.50;;;;;;5075943;28;20118;-86
2023/05/02 12:26:37;;;;;;;0.00;0.00;;;13.60;87.00;;;;;;5079875;28;20095;-85
2023/05/02 12:29:07;;;;;;;0.00;0.00;;;13.60;88.50;;;;;;5081536;28;20177;-85
2023/05/02 12:31:33;;;;;;;0.00;0.00;;;13.50;88.70;;;;;;5080389;28;20050;-85
2023/05/02 12:33:59;;;;;;;0.00;0.00;;;13.40;87.70;;;;;;5079017;28;20047;-85
2023/05/02 12:36:27;;;;;;;0.00;0.00;;;13.40;88.30;;;;;;5096702;28;20056;-85
2023/05/02 12:38:57;;;;;;;0.00;0.00;;;13.30;87.90;;;;;;5080273;28;20042;-85
2023/05/02 12:41:50;;;;;;;0.17;0.00;;;13.20;90.00;;;;;;5079780;28;20185;-85
2023/05/02 12:44:34;;;;;;;0.00;0.00;;;13.30;90.90;;;;;;5075473;28;20062;-85
2023/05/02 12:47:02;;;;;;;0.00;0.00;;;13.40;91.70;;;;;;5079741;28;20040;-85
2023/05/02 12:49:28;;;;;;;0.30;0.22;;;13.50;89.10;;;;;;5079643;28;20047;-85
2023/05/02 12:52:02;;;;;;;0.00;0.00;;;13.50;89.70;;;;;;5063300;28;20052;-85
2023/05/02 12:54:28;;;;;;;0.00;0.00;;;13.40;87.90;;;;;;5047756;28;20047;-85
2023/05/02 12:57:32;;;;;;;0.00;0.00;;;13.40;89.00;;;;;;5062914;28;20043;-85
2023/05/02 13:00:05;;;;;;;0.00;0.00;;;13.20;88.10;;;;;;5066205;28;20146;-85
2023/05/02 13:02:32;;;;;;;0.00;0.00;;;13.20;89.70;;;;;;5063287;28;20104;-86
2023/05/02 13:04:58;;;;;;;0.00;0.00;;;13.10;90.10;;;;;;5079719;28;20134;-85